createdAt,value
2018-07-13T00:02:14.824Z,18.30
2018-07-13T00:04:43.211Z,18.30
2018-07-13T00:07:11.548Z,18.40
2018-07-13T00:09:39.949Z,18.40
2018-07-13T00:12:08.511Z,18.30
2018-07-13T00:14:36.916Z,18.20
2018-07-13T00:17:06.117Z,18.20
2018-07-13T00:19:34.489Z,18.10
2018-07-13T00:22:02.833Z,18.10
2018-07-13T00:24:31.195Z,18.10
2018-07-13T00:26:59.542Z,18.10
2018-07-13T00:29:27.917Z,18.10
2018-07-13T00:31:56.265Z,18.00
2018-07-13T00:34:24.633Z,17.90
2018-07-13T00:36:53.237Z,17.90
2018-07-13T00:39:21.583Z,17.80
2018-07-13T00:41:49.973Z,17.80
2018-07-13T00:44:18.353Z,17.90
2018-07-13T00:46:46.750Z,17.90
2018-07-13T00:49:15.093Z,17.90
2018-07-13T00:51:43.461Z,17.80
2018-07-13T00:54:11.817Z,17.80
2018-07-13T00:56:40.192Z,17.80
2018-07-13T00:59:08.539Z,17.70
2018-07-13T01:01:36.905Z,17.80
2018-07-13T01:04:05.277Z,17.70
2018-07-13T01:06:33.649Z,17.70
2018-07-13T01:09:01.985Z,17.70
2018-07-13T01:11:30.361Z,17.80
2018-07-13T01:13:58.712Z,17.80
2018-07-13T01:16:27.085Z,17.80
2018-07-13T01:18:55.440Z,17.90
2018-07-13T01:21:23.812Z,17.90
2018-07-13T01:23:52.181Z,17.80
2018-07-13T01:26:20.552Z,17.90
2018-07-13T01:28:49.053Z,17.90
2018-07-13T01:31:17.429Z,18.00
2018-07-13T01:33:45.777Z,17.90
2018-07-13T01:36:14.156Z,18.00
2018-07-13T01:38:42.725Z,18.00
2018-07-13T01:41:11.132Z,18.00
2018-07-13T01:43:39.542Z,18.00
2018-07-13T01:46:07.933Z,18.00
2018-07-13T01:48:36.272Z,18.00
2018-07-13T01:51:04.673Z,17.90
2018-07-13T01:53:33.049Z,17.80
2018-07-13T01:56:01.407Z,17.80
2018-07-13T01:58:29.745Z,17.70
2018-07-13T02:00:58.136Z,17.60
2018-07-13T02:03:26.501Z,17.60
2018-07-13T02:05:54.836Z,17.60
2018-07-13T02:08:23.240Z,17.60
2018-07-13T02:10:51.564Z,17.60
2018-07-13T02:13:19.897Z,17.50
2018-07-13T02:15:48.232Z,17.50
2018-07-13T02:18:16.575Z,17.50
2018-07-13T02:20:44.973Z,17.40
2018-07-13T02:23:13.322Z,17.40
2018-07-13T02:25:41.779Z,17.50
2018-07-13T02:28:10.157Z,17.40
2018-07-13T02:30:38.486Z,17.40
2018-07-13T02:33:06.854Z,17.40
2018-07-13T02:35:35.219Z,17.40
2018-07-13T02:38:03.723Z,17.40
2018-07-13T02:40:32.062Z,17.40
2018-07-13T02:43:00.428Z,17.30
2018-07-13T02:45:28.770Z,17.20
2018-07-13T02:47:57.129Z,17.10
2018-07-13T02:50:25.526Z,17.00
2018-07-13T02:52:53.857Z,17.00
2018-07-13T02:55:22.209Z,17.00
2018-07-13T02:57:50.586Z,17.00
2018-07-13T03:00:18.951Z,17.00
2018-07-13T03:02:47.341Z,17.00
2018-07-13T03:05:15.678Z,17.00
2018-07-13T03:07:44.044Z,17.00
2018-07-13T03:10:12.390Z,17.00
2018-07-13T03:12:40.768Z,17.00
2018-07-13T03:15:09.145Z,17.00
2018-07-13T03:17:37.555Z,17.00
2018-07-13T03:20:05.917Z,17.00
2018-07-13T03:22:34.293Z,17.00
2018-07-13T03:25:02.649Z,17.00
2018-07-13T03:27:31.029Z,17.10
2018-07-13T03:29:59.374Z,17.10
2018-07-13T03:32:27.709Z,17.00
2018-07-13T03:34:56.085Z,17.00
2018-07-13T03:37:24.497Z,17.00
2018-07-13T03:39:52.877Z,17.00
2018-07-13T03:42:21.225Z,17.00
2018-07-13T03:44:49.592Z,16.90
2018-07-13T03:49:46.039Z,16.60
2018-07-13T03:52:14.379Z,16.50
2018-07-13T03:54:42.752Z,16.50
2018-07-13T03:57:11.085Z,16.50
2018-07-13T03:59:39.445Z,16.50
2018-07-13T04:02:07.846Z,16.40
2018-07-13T04:04:36.216Z,16.20
2018-07-13T04:07:04.619Z,16.10
2018-07-13T04:09:32.977Z,16.00
2018-07-13T04:12:01.340Z,16.10
2018-07-13T04:14:29.768Z,16.20
2018-07-13T04:16:58.134Z,16.20
2018-07-13T04:19:26.525Z,16.20
2018-07-13T04:21:54.923Z,16.20
2018-07-13T04:24:23.340Z,16.20
2018-07-13T04:26:51.885Z,16.20
2018-07-13T04:29:20.501Z,16.20
2018-07-13T04:31:48.861Z,16.30
2018-07-13T04:34:17.325Z,16.30
2018-07-13T04:36:45.673Z,16.40
2018-07-13T04:39:14.108Z,16.40
2018-07-13T04:41:42.609Z,16.40
2018-07-13T04:44:11.018Z,16.50
2018-07-13T04:46:39.462Z,16.50
2018-07-13T04:49:07.877Z,16.60
2018-07-13T04:51:36.300Z,16.60
2018-07-13T04:54:04.749Z,16.60
2018-07-13T04:56:33.541Z,16.50
2018-07-13T04:59:01.983Z,16.60
2018-07-13T05:01:30.416Z,16.70
2018-07-13T05:03:58.872Z,16.80
2018-07-13T05:06:27.305Z,16.80
2018-07-13T05:08:56.201Z,16.70
2018-07-13T05:11:24.597Z,16.70
2018-07-13T05:13:52.974Z,16.80
2018-07-13T05:16:21.477Z,16.80
2018-07-13T05:18:49.821Z,16.80
2018-07-13T05:21:18.282Z,17.00
2018-07-13T05:23:46.997Z,17.10
2018-07-13T05:26:15.427Z,17.20
2018-07-13T05:28:43.853Z,17.40
2018-07-13T05:31:12.433Z,17.60
2018-07-13T05:33:41.017Z,17.80
2018-07-13T05:36:09.465Z,18.00
2018-07-13T05:38:37.880Z,18.30
2018-07-13T05:41:06.320Z,18.50
2018-07-13T05:43:34.736Z,18.80
2018-07-13T05:46:03.188Z,19.10
2018-07-13T05:48:32.510Z,19.40
2018-07-13T05:51:00.937Z,19.50
2018-07-13T05:53:29.358Z,19.80
2018-07-13T05:55:57.781Z,20.00
2018-07-13T05:58:26.170Z,20.30
2018-07-13T06:00:54.621Z,20.50
2018-07-13T06:03:23.009Z,20.70
2018-07-13T06:05:51.468Z,20.90
2018-07-13T06:08:19.857Z,21.10
2018-07-13T06:10:48.265Z,21.30
2018-07-13T06:13:16.676Z,21.50
2018-07-13T06:15:45.205Z,21.60
2018-07-13T06:18:13.557Z,21.60
2018-07-13T06:20:41.933Z,21.50
2018-07-13T06:23:10.277Z,21.80
2018-07-13T06:25:38.633Z,22.00
2018-07-13T06:28:06.993Z,22.30
2018-07-13T06:30:35.451Z,22.50
2018-07-13T06:33:03.817Z,22.60
2018-07-13T06:35:32.165Z,22.70
2018-07-13T06:38:00.534Z,22.60
2018-07-13T06:40:29.104Z,22.70
2018-07-13T06:42:57.452Z,23.00
2018-07-13T06:45:25.846Z,23.30
2018-07-13T06:47:54.242Z,23.60
2018-07-13T06:50:22.627Z,23.70
2018-07-13T06:52:51.238Z,23.90
2018-07-13T06:55:19.665Z,24.00
2018-07-13T06:57:59.412Z,24.10
2018-07-13T07:01:07.325Z,24.20
2018-07-13T07:03:43.046Z,23.80
2018-07-13T07:06:13.890Z,24.10
2018-07-13T07:08:47.209Z,24.30
2018-07-13T07:11:16.043Z,24.30
2018-07-13T07:13:44.958Z,24.20
2018-07-13T07:16:13.423Z,23.90
2018-07-13T07:18:41.950Z,23.90
2018-07-13T07:21:10.477Z,23.70
2018-07-13T07:23:39.085Z,23.90
2018-07-13T07:26:07.540Z,24.40
2018-07-13T07:28:35.965Z,24.70
2018-07-13T07:31:04.365Z,24.70
2018-07-13T07:33:32.733Z,24.90
2018-07-13T07:36:01.053Z,25.10
2018-07-13T07:38:29.555Z,25.20
2018-07-13T07:40:57.909Z,25.30
2018-07-13T07:43:26.324Z,25.30
2018-07-13T07:45:54.681Z,24.90
2018-07-13T07:48:23.054Z,24.50
2018-07-13T07:50:51.466Z,24.80
2018-07-13T07:53:19.876Z,25.10
2018-07-13T07:55:48.272Z,25.40
2018-07-13T07:58:16.677Z,25.50
2018-07-13T08:00:45.048Z,25.60
2018-07-13T08:03:13.411Z,25.80
2018-07-13T08:05:41.784Z,25.20
2018-07-13T08:08:10.185Z,25.20
2018-07-13T08:10:38.560Z,25.40
2018-07-13T08:13:06.973Z,25.60
2018-07-13T08:15:35.417Z,25.60
2018-07-13T08:18:03.862Z,25.70
2018-07-13T08:20:33.841Z,25.80
2018-07-13T08:23:06.845Z,25.70
2018-07-13T08:25:35.600Z,25.50
2018-07-13T08:28:04.699Z,25.90
2018-07-13T08:30:35.828Z,25.60
2018-07-13T08:33:04.190Z,26.00
2018-07-13T08:35:32.769Z,26.20
2018-07-13T08:38:01.149Z,26.40
2018-07-13T08:40:29.634Z,26.50
2018-07-13T08:42:58.062Z,26.50
2018-07-13T08:45:26.429Z,26.50
2018-07-13T08:47:54.908Z,26.50
2018-07-13T08:50:23.423Z,26.10
2018-07-13T08:52:52.508Z,26.10
2018-07-13T08:55:20.929Z,26.40
2018-07-13T08:57:49.988Z,26.20
2018-07-13T09:00:18.385Z,26.20
2018-07-13T09:02:46.753Z,26.30
2018-07-13T09:05:15.129Z,26.30
2018-07-13T09:07:43.497Z,26.60
2018-07-13T09:10:12.980Z,26.90
2018-07-13T09:12:41.828Z,27.10
2018-07-13T09:15:11.805Z,26.80
2018-07-13T09:17:40.188Z,26.70
2018-07-13T09:20:10.285Z,26.50
2018-07-13T09:22:38.664Z,26.60
2018-07-13T09:25:07.830Z,26.10
2018-07-13T09:27:36.157Z,26.00
2018-07-13T09:30:04.811Z,26.00
2018-07-13T09:32:33.221Z,25.90
2018-07-13T09:35:01.598Z,25.90
2018-07-13T09:37:29.982Z,26.30
2018-07-13T09:39:58.373Z,26.40
2018-07-13T09:42:26.792Z,26.50
2018-07-13T09:44:55.167Z,26.80
2018-07-13T09:47:23.544Z,26.90
2018-07-13T09:49:51.912Z,26.80
2018-07-13T09:52:20.273Z,26.60
2018-07-13T09:54:48.738Z,26.70
2018-07-13T09:57:17.130Z,26.80
2018-07-13T10:02:13.716Z,26.90
2018-07-13T10:04:42.133Z,26.80
2018-07-13T10:07:10.673Z,26.70
2018-07-13T10:09:39.070Z,26.90
2018-07-13T10:12:07.568Z,27.10
2018-07-13T10:14:35.949Z,26.80
2018-07-13T10:17:04.397Z,26.90
2018-07-13T10:19:32.813Z,27.10
2018-07-13T10:22:01.273Z,27.20
2018-07-13T10:24:30.797Z,27.20
2018-07-13T10:26:59.457Z,27.20
2018-07-13T10:29:30.820Z,27.20
2018-07-13T10:32:00.046Z,27.30
2018-07-13T10:34:28.445Z,27.30
2018-07-13T10:37:02.013Z,26.90
2018-07-13T10:39:30.601Z,26.90
2018-07-13T10:41:58.960Z,27.00
2018-07-13T10:44:27.284Z,27.10
2018-07-13T10:46:55.704Z,27.10
2018-07-13T10:49:24.027Z,27.10
2018-07-13T10:51:52.729Z,27.30
2018-07-13T10:54:21.537Z,27.50
2018-07-13T10:56:49.886Z,27.40
2018-07-13T10:59:18.326Z,27.30
2018-07-13T11:01:46.823Z,27.40
2018-07-13T11:04:15.156Z,27.50
2018-07-13T11:06:44.386Z,27.50
2018-07-13T11:09:12.749Z,27.60
2018-07-13T11:11:41.089Z,27.70
2018-07-13T11:14:09.929Z,27.50
2018-07-13T11:16:38.629Z,27.60
2018-07-13T11:19:06.993Z,27.50
2018-07-13T11:21:35.429Z,27.30
2018-07-13T11:24:03.798Z,27.30
2018-07-13T11:26:32.150Z,27.30
2018-07-13T11:29:00.726Z,27.20
2018-07-13T11:31:29.200Z,27.30
2018-07-13T11:33:57.534Z,27.30
2018-07-13T11:36:25.869Z,27.40
2018-07-13T11:38:54.245Z,27.50
2018-07-13T11:41:22.580Z,27.60
2018-07-13T11:43:51.012Z,27.70
2018-07-13T11:46:19.477Z,27.60
2018-07-13T11:48:47.781Z,27.40
2018-07-13T11:51:16.147Z,27.60
2018-07-13T11:53:44.469Z,27.70
2018-07-13T11:56:13.014Z,27.80
2018-07-13T11:58:41.381Z,27.80
2018-07-13T12:01:09.785Z,27.50
2018-07-13T12:03:38.137Z,27.70
2018-07-13T12:06:06.493Z,27.80
2018-07-13T12:08:34.921Z,27.80
2018-07-13T12:11:03.242Z,27.80
2018-07-13T12:13:31.689Z,27.80
2018-07-13T12:16:00.168Z,27.70
2018-07-13T12:18:28.513Z,27.50
2018-07-13T12:20:56.829Z,27.40
2018-07-13T12:23:25.216Z,27.30
2018-07-13T12:25:53.532Z,27.30
2018-07-13T12:28:22.352Z,27.30
2018-07-13T12:30:50.687Z,27.60
2018-07-13T12:33:19.061Z,27.80
2018-07-13T12:35:47.530Z,27.80
2018-07-13T12:38:15.894Z,27.70
2018-07-13T12:40:44.234Z,27.90
2018-07-13T12:43:12.605Z,27.90
2018-07-13T12:45:40.923Z,27.90
2018-07-13T12:48:09.254Z,27.90
2018-07-13T12:50:37.625Z,27.90
2018-07-13T12:56:09.098Z,28.10
2018-07-13T12:58:37.481Z,27.90
2018-07-13T13:01:05.903Z,28.00
2018-07-13T13:03:34.303Z,27.90
2018-07-13T13:06:02.860Z,27.80
2018-07-13T13:08:32.326Z,27.70
2018-07-13T13:11:01.075Z,27.70
2018-07-13T13:13:29.933Z,27.70
2018-07-13T13:15:58.430Z,27.80
2018-07-13T13:18:26.789Z,27.90
2018-07-13T13:20:55.186Z,28.10
2018-07-13T13:23:23.982Z,27.60
2018-07-13T13:25:53.336Z,27.50
2018-07-13T13:28:22.038Z,27.60
2018-07-13T13:30:50.725Z,27.70
2018-07-13T13:33:19.150Z,27.90
2018-07-13T13:35:47.530Z,27.70
2018-07-13T13:38:15.918Z,27.60
2018-07-13T13:40:44.606Z,27.70
2018-07-13T13:43:13.985Z,27.80
2018-07-13T13:45:43.231Z,27.80
2018-07-13T13:48:12.474Z,27.80
2018-07-13T13:50:41.018Z,28.00
2018-07-13T13:53:09.430Z,28.20
2018-07-13T13:55:37.847Z,28.10
2018-07-13T13:58:06.254Z,28.00
2018-07-13T14:00:34.745Z,27.90
2018-07-13T14:03:03.682Z,28.00
2018-07-13T14:05:32.218Z,28.20
2018-07-13T14:08:01.178Z,28.30
2018-07-13T14:10:30.089Z,28.20
2018-07-13T14:12:58.641Z,27.90
2018-07-13T14:15:27.034Z,27.70
2018-07-13T14:17:55.451Z,27.70
2018-07-13T14:20:24.419Z,27.90
2018-07-13T14:22:53.653Z,27.80
2018-07-13T14:25:23.251Z,27.80
2018-07-13T14:27:52.303Z,27.80
2018-07-13T14:30:21.165Z,27.70
2018-07-13T14:32:49.527Z,27.50
2018-07-13T14:35:17.908Z,27.50
2018-07-13T14:37:46.486Z,27.50
2018-07-13T14:40:15.062Z,27.40
2018-07-13T14:42:43.785Z,27.50
2018-07-13T14:45:13.331Z,27.50
2018-07-13T14:47:42.440Z,27.50
2018-07-13T14:50:10.827Z,27.50
2018-07-13T14:52:39.201Z,27.50
2018-07-13T14:55:07.642Z,27.60
2018-07-13T14:57:36.142Z,27.60
2018-07-13T15:00:04.871Z,27.50
2018-07-13T15:02:33.246Z,27.50
2018-07-13T15:05:01.681Z,27.50
2018-07-13T15:07:30.018Z,27.50
2018-07-13T15:09:58.409Z,27.60
2018-07-13T15:12:26.813Z,27.60
2018-07-13T15:14:55.206Z,27.40
2018-07-13T15:17:23.644Z,27.20
2018-07-13T15:19:51.974Z,27.40
2018-07-13T15:22:20.333Z,27.40
2018-07-13T15:24:48.710Z,27.40
2018-07-13T15:27:17.157Z,27.30
2018-07-13T15:29:45.518Z,27.20
2018-07-13T15:32:13.937Z,27.20
2018-07-13T15:34:42.250Z,27.20
2018-07-13T15:37:10.627Z,27.10
2018-07-13T15:39:38.982Z,27.20
2018-07-13T15:42:07.341Z,27.00
2018-07-13T15:44:36.022Z,26.90
2018-07-13T15:47:04.491Z,26.90
2018-07-13T15:49:32.841Z,26.80
2018-07-13T15:52:01.246Z,26.70
2018-07-13T15:54:29.721Z,26.70
2018-07-13T15:56:58.338Z,26.70
2018-07-13T15:59:26.696Z,26.80
2018-07-13T16:01:55.070Z,27.00
2018-07-13T16:04:23.413Z,27.00
2018-07-13T16:06:51.782Z,27.10
2018-07-13T16:09:20.124Z,27.20
2018-07-13T16:11:48.518Z,27.20
2018-07-13T16:14:16.865Z,27.30
2018-07-13T16:16:45.233Z,27.40
2018-07-13T16:19:13.677Z,27.30
2018-07-13T16:21:42.051Z,27.40
2018-07-13T16:24:10.433Z,27.30
2018-07-13T16:26:38.942Z,27.00
2018-07-13T16:29:07.402Z,26.80
2018-07-13T16:31:35.779Z,26.80
2018-07-13T16:34:04.185Z,26.90
2018-07-13T16:36:32.546Z,26.90
2018-07-13T16:39:00.886Z,26.80
2018-07-13T16:41:29.245Z,26.60
2018-07-13T16:43:57.585Z,26.50
2018-07-13T16:46:25.954Z,26.60
2018-07-13T16:48:54.301Z,26.60
2018-07-13T16:51:22.730Z,26.70
2018-07-13T16:53:51.134Z,26.70
2018-07-13T16:56:19.705Z,26.80
2018-07-13T16:58:48.031Z,26.70
2018-07-13T17:01:16.385Z,26.70
2018-07-13T17:03:44.765Z,26.70
2018-07-13T17:06:13.267Z,26.70
2018-07-13T17:08:42.093Z,26.60
2018-07-13T17:11:10.434Z,26.60
2018-07-13T17:13:38.812Z,26.60
2018-07-13T17:16:07.153Z,26.50
2018-07-13T17:18:35.528Z,26.40
2018-07-13T17:21:04.054Z,26.40
2018-07-13T17:23:32.414Z,26.50
2018-07-13T17:26:01.222Z,26.50
2018-07-13T17:28:29.606Z,26.40
2018-07-13T17:30:57.953Z,26.40
2018-07-13T17:33:26.397Z,26.40
2018-07-13T17:35:54.779Z,26.20
2018-07-13T17:38:23.150Z,26.20
2018-07-13T17:40:52.365Z,26.10
2018-07-13T17:43:20.733Z,26.20
2018-07-13T17:45:49.118Z,26.30
2018-07-13T17:48:17.494Z,26.40
2018-07-13T17:50:45.845Z,26.40
2018-07-13T17:53:14.209Z,26.50
2018-07-13T17:55:42.633Z,26.40
2018-07-13T17:58:11.109Z,26.20
2018-07-13T18:00:39.512Z,26.10
2018-07-13T18:03:07.833Z,26.00
2018-07-13T18:05:36.411Z,26.00
2018-07-13T18:08:04.774Z,26.00
2018-07-13T18:10:33.123Z,25.90
2018-07-13T18:13:01.823Z,25.90
2018-07-13T18:15:29.870Z,25.80
2018-07-13T18:17:58.257Z,25.80
2018-07-13T18:20:26.635Z,25.80
2018-07-13T18:22:55.028Z,25.80
2018-07-13T18:25:23.430Z,25.60
2018-07-13T18:27:52.169Z,25.60
2018-07-13T18:30:20.603Z,25.60
2018-07-13T18:32:48.945Z,25.60
2018-07-13T18:35:17.366Z,25.50
2018-07-13T18:37:45.994Z,25.50
2018-07-13T18:40:14.538Z,25.40
2018-07-13T18:42:42.882Z,25.30
2018-07-13T18:45:11.384Z,25.30
2018-07-13T18:47:39.797Z,25.20
2018-07-13T18:50:08.197Z,25.20
2018-07-13T18:52:36.601Z,25.20
2018-07-13T18:55:05.157Z,25.20
2018-07-13T18:57:33.769Z,25.20
2018-07-13T19:00:02.177Z,25.10
2018-07-13T19:02:30.642Z,25.10
2018-07-13T19:04:59.018Z,25.10
2018-07-13T19:07:27.452Z,25.10
2018-07-13T19:09:58.962Z,25.00
2018-07-13T19:12:27.317Z,25.00
2018-07-13T19:14:55.833Z,25.00
2018-07-13T19:17:24.505Z,25.00
2018-07-13T19:19:53.114Z,24.90
2018-07-13T19:22:21.487Z,24.90
2018-07-13T19:24:49.870Z,24.80
2018-07-13T19:27:18.221Z,24.60
2018-07-13T19:29:46.646Z,24.60
2018-07-13T19:34:43.605Z,24.30
2018-07-13T19:37:12.245Z,24.20
2018-07-13T19:39:40.650Z,24.10
2018-07-13T19:42:09.017Z,24.10
2018-07-13T19:44:37.465Z,24.00
2018-07-13T19:47:06.614Z,23.70
2018-07-13T19:49:35.353Z,23.70
2018-07-13T19:52:04.338Z,23.70
2018-07-13T19:54:33.031Z,23.60
2018-07-13T19:57:01.562Z,23.60
2018-07-13T19:59:29.874Z,23.50
2018-07-13T20:01:58.473Z,23.40
2018-07-13T20:04:26.971Z,23.20
2018-07-13T20:06:55.611Z,23.10
2018-07-13T20:09:24.997Z,23.10
2018-07-13T20:14:22.646Z,23.00
2018-07-13T20:16:51.053Z,22.90
2018-07-13T20:19:19.531Z,22.80
2018-07-13T20:21:47.910Z,22.60
2018-07-13T20:24:16.502Z,22.40
2018-07-13T20:26:45.737Z,22.20
2018-07-13T20:29:14.834Z,22.10
2018-07-13T20:31:43.817Z,22.10
2018-07-13T20:34:12.220Z,22.10
2018-07-13T20:36:40.614Z,22.10
2018-07-13T20:39:09.077Z,22.00
2018-07-13T20:41:37.633Z,22.00
2018-07-13T20:44:06.509Z,21.90
2018-07-13T20:46:35.369Z,21.90
2018-07-13T20:49:04.217Z,21.90
2018-07-13T20:51:33.297Z,21.80
2018-07-13T20:54:02.469Z,21.70
2018-07-13T20:56:31.312Z,21.80
2018-07-13T20:58:59.723Z,21.80
2018-07-13T21:01:28.110Z,21.70
2018-07-13T21:03:56.774Z,21.60
2018-07-13T21:06:25.901Z,21.60
2018-07-13T21:08:54.872Z,21.50
2018-07-13T21:11:24.657Z,21.50
2018-07-13T21:13:54.545Z,21.50
2018-07-13T21:16:24.431Z,21.40
2018-07-13T21:18:53.476Z,21.30
2018-07-13T21:21:23.068Z,21.30
2018-07-13T21:23:52.808Z,21.30
2018-07-13T21:26:21.357Z,21.30
2018-07-13T21:28:50.114Z,21.20
2018-07-13T21:31:18.533Z,21.10
2018-07-13T21:33:46.905Z,21.10
2018-07-13T21:36:15.313Z,21.00
2018-07-13T21:38:43.727Z,21.00
2018-07-13T21:41:12.121Z,21.00
2018-07-13T21:43:40.493Z,21.00
2018-07-13T21:46:08.888Z,20.90
2018-07-13T21:48:37.257Z,20.90
2018-07-13T21:51:05.765Z,20.80
2018-07-13T21:53:34.157Z,20.80
2018-07-13T21:56:02.566Z,20.90
2018-07-13T21:58:30.978Z,20.90
2018-07-13T22:00:59.365Z,20.80
2018-07-13T22:03:27.770Z,20.90
2018-07-13T22:05:56.133Z,20.90
2018-07-13T22:08:24.499Z,20.80
2018-07-13T22:10:52.854Z,20.70
2018-07-13T22:13:21.442Z,20.70
2018-07-13T22:15:49.717Z,20.60
2018-07-13T22:18:18.091Z,20.60
2018-07-13T22:20:46.481Z,20.60
2018-07-13T22:23:15.150Z,20.50
2018-07-13T22:25:43.465Z,20.50
2018-07-13T22:28:11.918Z,20.50
2018-07-13T22:30:40.306Z,20.50
2018-07-13T22:33:08.665Z,20.50
2018-07-13T22:35:37.018Z,20.50
2018-07-13T22:38:05.422Z,20.40
2018-07-13T22:40:33.776Z,20.40
2018-07-13T22:43:02.161Z,20.40
2018-07-13T22:45:30.525Z,20.30
2018-07-13T22:47:58.925Z,20.30
2018-07-13T22:50:27.371Z,20.20
2018-07-13T22:52:55.738Z,20.20
2018-07-13T22:55:24.125Z,20.10
2018-07-13T22:57:52.545Z,20.00
2018-07-13T23:00:20.933Z,20.00
2018-07-13T23:02:49.330Z,20.00
2018-07-13T23:05:17.760Z,19.90
2018-07-13T23:07:46.203Z,19.90
2018-07-13T23:12:42.684Z,19.80
2018-07-13T23:15:11.082Z,19.70
2018-07-13T23:17:39.562Z,19.70
2018-07-13T23:20:07.942Z,19.80
2018-07-13T23:22:36.474Z,19.80
2018-07-13T23:25:04.995Z,19.70
2018-07-13T23:27:33.426Z,19.70
2018-07-13T23:30:01.821Z,19.60
2018-07-13T23:32:30.198Z,19.60
2018-07-13T23:34:58.595Z,19.60
2018-07-13T23:37:27.002Z,19.60
2018-07-13T23:39:55.366Z,19.60
2018-07-13T23:42:23.787Z,19.50
2018-07-13T23:44:52.173Z,19.40
2018-07-13T23:47:20.577Z,19.40
2018-07-13T23:49:48.951Z,19.40
2018-07-13T23:52:17.377Z,19.30
2018-07-13T23:54:45.792Z,19.30
2018-07-13T23:57:14.161Z,19.30
2018-07-13T23:59:42.501Z,19.30
